Time;durP1;ratioP1;P1;durP2;ratioP2;P2;SDS_P1;SDS_P2;PMS_P1;PMS_P2;Temp;Humidity;BMP_temperature;BMP_pressure;BME280_temperature;BME280_humidity;BME280_pressure;Samples;Min_cycle;Max_cycle;Signal;HPM_P1;HPM_P2
2021/01/30 00:00:08;;;;;;;2.80;1.08;;;;;;;;;;5047647;28;20112;-79
2021/01/30 00:02:34;;;;;;;3.42;1.02;;;;;;;;;;5047318;28;20079;-77
2021/01/30 00:05:00;;;;;;;5.63;1.60;;;;;;;;;;5046767;28;20041;-78
2021/01/30 00:07:26;;;;;;;3.85;1.65;;;;;;;;;;5047245;28;20024;-79
2021/01/30 00:09:52;;;;;;;4.63;1.00;;;;;;;;;;5047471;28;20123;-78
2021/01/30 00:12:18;;;;;;;4.07;1.80;;;;;;;;;;5047407;28;20056;-77
2021/01/30 00:14:44;;;;;;;4.10;1.88;;;;;;;;;;5046981;28;20021;-79
2021/01/30 00:17:10;;;;;;;3.80;1.15;;;;;;;;;;5047495;28;20055;-79
2021/01/30 00:19:37;;;;;;;3.20;1.15;;;;;;;;;;5047740;28;20029;-77
2021/01/30 00:22:08;;;;;;;3.95;1.00;;;;;;;;;;5047253;28;20380;-78
2021/01/30 00:24:34;;;;;;;2.60;0.98;;;;;;;;;;5046837;28;20067;-79
2021/01/30 00:27:02;;;;;;;2.75;0.77;;;;;;;;;;5047544;28;20096;-81
2021/01/30 00:29:30;;;;;;;4.95;1.02;;;;;;;;;;5047256;28;20025;-79
2021/01/30 00:31:56;;;;;;;4.13;1.10;;;;;;;;;;5047089;28;20751;-80
2021/01/30 00:34:23;;;;;;;3.97;1.45;;;;;;;;;;5046295;28;20161;-80
2021/01/30 00:36:53;;;;;;;3.28;1.27;;;;;;;;;;5045682;28;20059;-79
2021/01/30 00:39:19;;;;;;;5.00;1.20;;;;;;;;;;5045017;28;20029;-78
2021/01/30 00:41:45;;;;;;;3.08;1.23;;;;;;;;;;5046778;28;20075;-78
2021/01/30 00:44:11;;;;;;;4.65;1.30;;;;;;;;;;5047197;28;20029;-81
2021/01/30 00:46:37;;;;;;;1.95;0.85;;;;;;;;;;5045637;28;20025;-79
2021/01/30 00:49:03;;;;;;;2.67;0.80;;;;;;;;;;5046598;28;20036;-80
2021/01/30 00:51:29;;;;;;;5.40;1.10;;;;;;;;;;5046064;28;20033;-80
2021/01/30 00:53:55;;;;;;;6.85;1.63;;;;;;;;;;5046907;28;20430;-81
2021/01/30 00:56:21;;;;;;;4.85;1.00;;;;;;;;;;5045805;28;20021;-80
2021/01/30 00:58:47;;;;;;;2.05;0.88;;;;;;;;;;5046130;28;20444;-79
2021/01/30 01:01:14;;;;;;;4.03;0.85;;;;;;;;;;5046597;28;20013;-80
2021/01/30 01:03:40;;;;;;;1.70;0.57;;;;;;;;;;5046545;28;20055;-79
2021/01/30 01:06:07;;;;;;;6.78;1.00;;;;;;;;;;5045646;28;20021;-80
2021/01/30 01:08:33;;;;;;;3.00;0.90;;;;;;;;;;5046738;28;20056;-81
2021/01/30 01:10:59;;;;;;;4.03;0.85;;;;;;;;;;5046355;28;20035;-80
2021/01/30 01:13:26;;;;;;;2.28;0.90;;;;;;;;;;5047157;28;20029;-79
2021/01/30 01:15:52;;;;;;;1.90;0.80;;;;;;;;;;5047306;28;20144;-79
2021/01/30 01:18:18;;;;;;;2.58;0.68;;;;;;;;;;5046131;28;20671;-81
2021/01/30 01:20:44;;;;;;;3.08;0.80;;;;;;;;;;5045863;28;20143;-80
2021/01/30 01:23:10;;;;;;;2.75;0.77;;;;;;;;;;5045545;28;20124;-81
2021/01/30 01:25:37;;;;;;;2.50;0.77;;;;;;;;;;5044933;28;20119;-78
2021/01/30 01:28:03;;;;;;;2.03;0.80;;;;;;;;;;5045503;28;20021;-80
2021/01/30 01:30:29;;;;;;;4.25;1.45;;;;;;;;;;5045751;28;20854;-80
2021/01/30 01:32:55;;;;;;;3.03;0.80;;;;;;;;;;5046536;28;20033;-79
2021/01/30 01:35:24;;;;;;;0.82;0.60;;;;;;;;;;5048405;28;20027;-80
2021/01/30 01:37:51;;;;;;;2.03;0.60;;;;;;;;;;5048703;28;20120;-80
2021/01/30 01:40:18;;;;;;;1.77;0.60;;;;;;;;;;5066835;28;20021;-80
2021/01/30 01:42:44;;;;;;;0.93;0.60;;;;;;;;;;5048701;28;20021;-80
2021/01/30 01:45:10;;;;;;;0.88;0.70;;;;;;;;;;5047924;28;20295;-80
2021/01/30 01:47:45;;;;;;;1.58;0.90;;;;;;;;;;5048896;28;20443;-80
2021/01/30 01:50:19;;;;;;;1.25;0.70;;;;;;;;;;5048396;28;20097;-81
2021/01/30 01:52:45;;;;;;;1.58;1.00;;;;;;;;;;5048860;28;20020;-80
2021/01/30 01:55:14;;;;;;;1.52;0.80;;;;;;;;;;5048309;28;20032;-80
2021/01/30 01:57:42;;;;;;;2.05;0.70;;;;;;;;;;5048861;28;20016;-81
2021/01/30 02:00:08;;;;;;;1.98;0.90;;;;;;;;;;5048524;28;20024;-81
2021/01/30 02:02:34;;;;;;;2.55;0.60;;;;;;;;;;5048521;28;20025;-80
2021/01/30 02:05:00;;;;;;;1.17;0.60;;;;;;;;;;5048025;28;20472;-80
2021/01/30 02:07:27;;;;;;;2.80;0.60;;;;;;;;;;5048645;28;20021;-80
2021/01/30 02:09:54;;;;;;;1.20;0.75;;;;;;;;;;5070339;28;20029;-80
2021/01/30 02:12:22;;;;;;;1.75;0.50;;;;;;;;;;5052543;28;20016;-78
2021/01/30 02:14:49;;;;;;;1.50;0.70;;;;;;;;;;5046330;28;20651;-79
2021/01/30 02:17:24;;;;;;;1.50;0.50;;;;;;;;;;5033035;28;20025;-79
2021/01/30 02:20:26;;;;;;;1.02;0.60;;;;;;;;;;5032967;28;20029;-81
2021/01/30 02:22:58;;;;;;;1.45;0.55;;;;;;;;;;4933901;29;20072;-81
2021/01/30 02:25:43;;;;;;;2.28;0.50;;;;;;;;;;5016197;28;20033;-80
2021/01/30 02:28:27;;;;;;;2.60;0.50;;;;;;;;;;5032783;28;20199;-80
2021/01/30 02:31:02;;;;;;;0.95;0.52;;;;;;;;;;5032983;28;20029;-80
2021/01/30 02:33:31;;;;;;;1.52;0.52;;;;;;;;;;5040543;28;20027;-79
2021/01/30 02:36:17;;;;;;;1.80;0.60;;;;;;;;;;5071720;28;20028;-80
2021/01/30 02:38:45;;;;;;;1.52;0.73;;;;;;;;;;5072375;28;20097;-80
2021/01/30 02:41:14;;;;;;;1.98;0.80;;;;;;;;;;5071597;28;20431;-80
2021/01/30 02:43:43;;;;;;;3.40;0.80;;;;;;;;;;5072063;28;20073;-80
2021/01/30 02:46:13;;;;;;;1.77;0.90;;;;;;;;;;5071863;28;20501;-80
2021/01/30 02:48:41;;;;;;;3.58;1.10;;;;;;;;;;5072276;28;20131;-80
2021/01/30 02:51:11;;;;;;;3.95;1.00;;;;;;;;;;5072503;28;20073;-80
2021/01/30 02:53:38;;;;;;;2.42;0.70;;;;;;;;;;5060835;28;20028;-79
2021/01/30 02:56:05;;;;;;;6.20;0.70;;;;;;;;;;5045326;28;20025;-80
2021/01/30 02:58:41;;;;;;;1.65;0.77;;;;;;;;;;5051374;28;20094;-79
2021/01/30 03:01:07;;;;;;;2.60;0.77;;;;;;;;;;5052253;28;20028;-79
2021/01/30 03:03:33;;;;;;;2.42;0.50;;;;;;;;;;5054283;28;20086;-80
2021/01/30 03:06:03;;;;;;;1.02;0.60;;;;;;;;;;5053765;28;20086;-79
2021/01/30 03:08:37;;;;;;;3.58;0.80;;;;;;;;;;5054211;28;20025;-80
2021/01/30 03:11:14;;;;;;;1.48;0.57;;;;;;;;;;5054046;28;20028;-82
2021/01/30 03:13:55;;;;;;;3.07;0.60;;;;;;;;;;5054568;28;20488;-82
2021/01/30 03:16:23;;;;;;;1.52;0.60;;;;;;;;;;5053970;28;20036;-79
2021/01/30 03:18:51;;;;;;;1.98;0.50;;;;;;;;;;5054041;28;20088;-79
2021/01/30 03:21:18;;;;;;;2.13;0.88;;;;;;;;;;5052239;28;20483;-80
2021/01/30 03:23:44;;;;;;;1.48;0.43;;;;;;;;;;5053886;28;20020;-80
2021/01/30 03:26:14;;;;;;;1.23;0.50;;;;;;;;;;5053421;28;20107;-80
2021/01/30 03:28:40;;;;;;;4.80;0.60;;;;;;;;;;5053617;28;20124;-79
2021/01/30 03:31:06;;;;;;;1.67;0.70;;;;;;;;;;5053747;28;20128;-80
2021/01/30 03:33:32;;;;;;;2.15;0.60;;;;;;;;;;5053892;28;20028;-80
2021/01/30 03:35:58;;;;;;;2.13;0.60;;;;;;;;;;5053160;28;20027;-80
2021/01/30 03:38:24;;;;;;;2.15;0.60;;;;;;;;;;5053465;28;20031;-78
2021/01/30 03:40:51;;;;;;;2.35;0.60;;;;;;;;;;5053664;28;20115;-80
2021/01/30 03:43:17;;;;;;;1.55;0.60;;;;;;;;;;5053498;28;20043;-80
2021/01/30 03:45:43;;;;;;;1.42;0.50;;;;;;;;;;5053000;28;20017;-80
2021/01/30 03:48:09;;;;;;;3.05;0.55;;;;;;;;;;5053488;28;20031;-79
2021/01/30 03:50:35;;;;;;;2.90;0.60;;;;;;;;;;5053398;28;20036;-79
2021/01/30 03:53:04;;;;;;;2.08;0.55;;;;;;;;;;5053416;28;20029;-79
2021/01/30 03:55:30;;;;;;;1.50;0.63;;;;;;;;;;5053230;28;20120;-80
2021/01/30 03:57:56;;;;;;;3.60;0.70;;;;;;;;;;5053313;28;20024;-80
2021/01/30 04:00:23;;;;;;;1.70;0.50;;;;;;;;;;5053439;28;20423;-80
2021/01/30 04:02:49;;;;;;;2.38;0.68;;;;;;;;;;5069388;28;20055;-79
2021/01/30 04:05:20;;;;;;;0.90;0.50;;;;;;;;;;5061600;28;20086;-81
2021/01/30 04:07:47;;;;;;;3.15;0.73;;;;;;;;;;5089525;28;20253;-79
2021/01/30 04:10:15;;;;;;;4.55;0.75;;;;;;;;;;5070063;28;20056;-78
2021/01/30 04:12:41;;;;;;;4.32;0.60;;;;;;;;;;5070883;28;20140;-80
2021/01/30 04:15:08;;;;;;;6.10;0.95;;;;;;;;;;5070051;28;20020;-80
2021/01/30 04:17:34;;;;;;;2.58;0.65;;;;;;;;;;5070547;28;20057;-79
2021/01/30 04:20:00;;;;;;;2.88;0.80;;;;;;;;;;5070090;28;20058;-78
2021/01/30 04:22:26;;;;;;;2.45;0.80;;;;;;;;;;5069889;28;20368;-78
2021/01/30 04:24:53;;;;;;;3.03;0.80;;;;;;;;;;5087927;28;20020;-80
2021/01/30 04:27:19;;;;;;;2.10;0.80;;;;;;;;;;5070350;28;20379;-80
2021/01/30 04:29:45;;;;;;;4.28;1.00;;;;;;;;;;5070054;28;20035;-80
2021/01/30 04:32:11;;;;;;;2.72;0.88;;;;;;;;;;5070087;28;20028;-78
2021/01/30 04:34:37;;;;;;;3.40;1.00;;;;;;;;;;5070503;28;20375;-78
2021/01/30 04:37:04;;;;;;;2.85;0.90;;;;;;;;;;5070099;28;20406;-80
2021/01/30 04:39:30;;;;;;;3.30;0.90;;;;;;;;;;5070262;28;20478;-80
2021/01/30 04:42:15;;;;;;;2.45;0.93;;;;;;;;;;5070059;28;20035;-78
2021/01/30 04:44:44;;;;;;;4.00;0.80;;;;;;;;;;5069244;28;20039;-79
2021/01/30 04:47:22;;;;;;;5.78;1.23;;;;;;;;;;5070234;28;20023;-79
2021/01/30 04:50:03;;;;;;;6.47;1.27;;;;;;;;;;5069951;28;20031;-79
2021/01/30 04:52:45;;;;;;;5.78;1.10;;;;;;;;;;5069526;28;20081;-79
2021/01/30 04:55:14;;;;;;;5.50;1.30;;;;;;;;;;5068949;28;20027;-80
2021/01/30 04:57:45;;;;;;;5.93;1.23;;;;;;;;;;5069406;28;20035;-79
2021/01/30 05:00:11;;;;;;;7.65;1.40;;;;;;;;;;5069655;28;20056;-78
2021/01/30 05:02:52;;;;;;;7.38;1.23;;;;;;;;;;5087649;28;20450;-78
2021/01/30 05:05:21;;;;;;;5.40;1.27;;;;;;;;;;5069320;28;20635;-80
2021/01/30 05:08:08;;;;;;;5.80;1.20;;;;;;;;;;5069984;28;20031;-79
2021/01/30 05:10:42;;;;;;;4.13;1.00;;;;;;;;;;5069560;28;20020;-79
2021/01/30 05:13:37;;;;;;;6.22;1.20;;;;;;;;;;5105138;27;20351;-77
2021/01/30 05:16:11;;;;;;;5.07;1.17;;;;;;;;;;5103035;28;20031;-78
2021/01/30 05:18:45;;;;;;;10.80;1.75;;;;;;;;;;5103042;28;20067;-80
2021/01/30 05:21:13;;;;;;;8.63;1.50;;;;;;;;;;5104518;28;20027;-78
2021/01/30 05:23:40;;;;;;;5.53;1.27;;;;;;;;;;5103241;28;20051;-80
2021/01/30 05:26:32;;;;;;;9.60;1.58;;;;;;;;;;5102313;28;20077;-81
2021/01/30 05:29:11;;;;;;;5.88;1.40;;;;;;;;;;5087094;28;20031;-79
2021/01/30 05:31:44;;;;;;;5.32;1.30;;;;;;;;;;5102813;28;20020;-80
2021/01/30 05:34:15;;;;;;;6.43;1.38;;;;;;;;;;5103641;28;20020;-80
2021/01/30 05:36:46;;;;;;;10.48;1.77;;;;;;;;;;5102672;28;20104;-80
2021/01/30 05:39:19;;;;;;;10.88;1.77;;;;;;;;;;5102829;28;20020;-79
2021/01/30 05:41:45;;;;;;;11.63;1.92;;;;;;;;;;5102725;28;20023;-78
2021/01/30 05:44:34;;;;;;;8.32;1.58;;;;;;;;;;5102928;28;20027;-79
2021/01/30 05:47:01;;;;;;;6.32;1.50;;;;;;;;;;5083871;28;20036;-79
2021/01/30 05:49:29;;;;;;;11.50;2.35;;;;;;;;;;5102909;28;20119;-79
2021/01/30 05:52:01;;;;;;;7.15;1.50;;;;;;;;;;5104039;28;20213;-80
2021/01/30 05:54:27;;;;;;;10.27;1.88;;;;;;;;;;5102418;28;20107;-80
2021/01/30 05:56:53;;;;;;;11.48;1.70;;;;;;;;;;5102463;28;20024;-79
2021/01/30 05:59:30;;;;;;;7.88;1.70;;;;;;;;;;5102687;28;20024;-80
2021/01/30 06:02:09;;;;;;;10.27;2.03;;;;;;;;;;5102246;28;20118;-79
2021/01/30 06:04:35;;;;;;;10.15;1.95;;;;;;;;;;5101952;28;20035;-78
2021/01/30 06:07:02;;;;;;;11.73;1.90;;;;;;;;;;5102279;28;20027;-79
2021/01/30 06:09:31;;;;;;;11.55;2.00;;;;;;;;;;5103676;28;20069;-78
2021/01/30 06:11:57;;;;;;;8.50;1.90;;;;;;;;;;5101966;28;20024;-79
2021/01/30 06:14:31;;;;;;;12.05;1.80;;;;;;;;;;5103378;28;20020;-79
2021/01/30 06:17:01;;;;;;;12.25;1.75;;;;;;;;;;5103843;28;20027;-79
2021/01/30 06:19:36;;;;;;;12.30;1.90;;;;;;;;;;5102005;28;20023;-79
2021/01/30 06:22:13;;;;;;;15.27;2.10;;;;;;;;;;5102153;28;20024;-79
2021/01/30 06:24:45;;;;;;;13.75;2.35;;;;;;;;;;5088687;28;20073;-79
2021/01/30 06:27:34;;;;;;;12.68;2.35;;;;;;;;;;5088672;28;20028;-79
2021/01/30 06:30:02;;;;;;;13.90;2.30;;;;;;;;;;5088547;28;20050;-79
2021/01/30 06:32:28;;;;;;;;;;;;;;;;;;5088601;28;20111;-78
2021/01/30 06:34:56;;;;;;;15.27;3.30;;;;;;;;;;5088127;28;20002;-79
2021/01/30 06:37:48;;;;;;;11.48;2.97;;;;;;;;;;5088385;28;20027;-79
2021/01/30 06:40:18;;;;;;;8.70;2.13;;;;;;;;;;5086033;28;20169;-79
2021/01/30 06:42:45;;;;;;;14.70;2.95;;;;;;;;;;5087433;28;20373;-78
2021/01/30 06:45:20;;;;;;;16.42;2.83;;;;;;;;;;5087240;28;20115;-80
2021/01/30 06:47:47;;;;;;;15.00;3.17;;;;;;;;;;5088011;28;20153;-80
2021/01/30 06:50:26;;;;;;;12.75;2.95;;;;;;;;;;5088065;28;20432;-79
2021/01/30 06:52:52;;;;;;;13.82;3.03;;;;;;;;;;5087877;28;20020;-79
2021/01/30 06:55:18;;;;;;;11.93;2.65;;;;;;;;;;5087157;28;20020;-79
2021/01/30 06:57:44;;;;;;;12.25;2.40;;;;;;;;;;5087952;28;20103;-79
2021/01/30 07:00:20;;;;;;;11.38;2.33;;;;;;;;;;5087653;28;20106;-80
2021/01/30 07:02:48;;;;;;;16.40;2.87;;;;;;;;;;5087593;28;20031;-80
2021/01/30 07:05:17;;;;;;;15.57;2.63;;;;;;;;;;5086809;28;20981;-78
2021/01/30 07:07:58;;;;;;;12.00;2.47;;;;;;;;;;5087432;28;20024;-79
2021/01/30 07:10:32;;;;;;;14.68;2.28;;;;;;;;;;5087586;28;20020;-79
2021/01/30 07:13:04;;;;;;;14.75;2.47;;;;;;;;;;5086983;28;20057;-80
2021/01/30 07:15:32;;;;;;;14.80;2.42;;;;;;;;;;5087029;28;20020;-79
2021/01/30 07:18:04;;;;;;;12.05;2.80;;;;;;;;;;5087654;28;20023;-79
2021/01/30 07:20:34;;;;;;;12.65;2.70;;;;;;;;;;5087353;28;20024;-79
2021/01/30 07:23:06;;;;;;;12.15;2.63;;;;;;;;;;5087128;28;20082;-80
2021/01/30 07:25:38;;;;;;;13.68;2.78;;;;;;;;;;5087616;28;20016;-79
2021/01/30 07:28:12;;;;;;;13.23;2.38;;;;;;;;;;5087917;28;20526;-80
2021/01/30 07:30:45;;;;;;;13.13;2.97;;;;;;;;;;5086983;28;20587;-80
2021/01/30 07:33:15;;;;;;;16.05;2.95;;;;;;;;;;5086961;28;20106;-79
2021/01/30 07:36:00;;;;;;;15.93;2.67;;;;;;;;;;5085857;28;20478;-80
2021/01/30 07:38:42;;;;;;;15.60;2.75;;;;;;;;;;5087186;28;20028;-80
2021/01/30 07:41:17;;;;;;;12.95;2.17;;;;;;;;;;5087067;28;20117;-80
2021/01/30 07:43:44;;;;;;;9.63;2.15;;;;;;;;;;5088062;28;20024;-80
2021/01/30 07:46:27;;;;;;;10.68;2.47;;;;;;;;;;5086174;28;20052;-80
2021/01/30 07:48:55;;;;;;;11.93;2.67;;;;;;;;;;5086921;28;20035;-80
2021/01/30 07:51:29;;;;;;;18.23;3.88;;;;;;;;;;5087902;28;20028;-80
2021/01/30 07:53:56;;;;;;;16.48;3.15;;;;;;;;;;5088092;28;20032;-80
2021/01/30 07:56:28;;;;;;;12.10;3.50;;;;;;;;;;5085515;28;20016;-81
2021/01/30 07:58:54;;;;;;;14.13;3.03;;;;;;;;;;5087740;28;20035;-81
2021/01/30 08:01:23;;;;;;;15.77;3.17;;;;;;;;;;5086639;28;20024;-81
2021/01/30 08:03:49;;;;;;;14.95;2.63;;;;;;;;;;5086457;28;20027;-79
2021/01/30 08:06:18;;;;;;;16.17;2.72;;;;;;;;;;5085889;28;20032;-77
2021/01/30 08:09:02;;;;;;;13.52;2.67;;;;;;;;;;5086565;28;20119;-81
2021/01/30 08:11:31;;;;;;;14.77;2.80;;;;;;;;;;5086274;28;20570;-82
2021/01/30 08:14:02;;;;;;;13.95;2.83;;;;;;;;;;5086849;28;20133;-82
2021/01/30 08:16:47;;;;;;;16.80;2.67;;;;;;;;;;5086128;28;20047;-81
2021/01/30 08:19:17;;;;;;;14.77;3.35;;;;;;;;;;5086382;28;20020;-81
2021/01/30 08:22:04;;;;;;;17.15;3.17;;;;;;;;;;5086460;28;20566;-83
2021/01/30 08:24:53;;;;;;;12.65;2.67;;;;;;;;;;5085741;28;20115;-82
2021/01/30 08:27:24;;;;;;;18.80;3.17;;;;;;;;;;5080498;28;20063;-81
2021/01/30 08:29:54;;;;;;;14.18;2.83;;;;;;;;;;5085712;28;20028;-83
2021/01/30 08:32:23;;;;;;;13.60;2.90;;;;;;;;;;5086014;28;20063;-82
2021/01/30 08:34:50;;;;;;;19.83;3.10;;;;;;;;;;5085351;28;20042;-82
2021/01/30 08:37:16;;;;;;;16.13;3.20;;;;;;;;;;5086497;28;20025;-80
2021/01/30 08:40:01;;;;;;;15.93;3.35;;;;;;;;;;5087049;28;20039;-81
2021/01/30 08:42:29;;;;;;;17.27;2.83;;;;;;;;;;5082776;28;20414;-81
2021/01/30 08:45:13;;;;;;;11.65;2.70;;;;;;;;;;5065216;28;20036;-81
2021/01/30 08:47:54;;;;;;;14.57;2.65;;;;;;;;;;5065996;28;20417;-81
2021/01/30 08:50:26;;;;;;;18.42;3.40;;;;;;;;;;5075642;28;20027;-80
2021/01/30 08:52:54;;;;;;;17.33;3.45;;;;;;;;;;5086064;28;20122;-80
2021/01/30 08:55:38;;;;;;;11.75;2.78;;;;;;;;;;5087160;28;20035;-82
2021/01/30 08:58:04;;;;;;;17.42;3.03;;;;;;;;;;5086621;28;20028;-80
2021/01/30 09:00:37;;;;;;;15.80;3.20;;;;;;;;;;5088229;28;20026;-81
2021/01/30 09:03:06;;;;;;;17.23;3.22;;;;;;;;;;5088046;28;20028;-80
2021/01/30 09:05:33;;;;;;;14.18;2.85;;;;;;;;;;5086455;28;20073;-80
2021/01/30 09:08:00;;;;;;;16.67;3.13;;;;;;;;;;5088403;28;20039;-79
2021/01/30 09:10:33;;;;;;;15.32;2.42;;;;;;;;;;5086901;28;20179;-79
2021/01/30 09:13:04;;;;;;;16.55;3.30;;;;;;;;;;5087355;28;20024;-81
2021/01/30 09:15:39;;;;;;;15.60;2.65;;;;;;;;;;5086826;28;20020;-81
2021/01/30 09:18:08;;;;;;;10.88;2.50;;;;;;;;;;5087164;28;20024;-80
2021/01/30 09:20:36;;;;;;;15.10;2.85;;;;;;;;;;5085762;28;20020;-80
2021/01/30 09:23:16;;;;;;;12.73;2.70;;;;;;;;;;5085913;28;20028;-81
2021/01/30 09:25:48;;;;;;;13.48;2.90;;;;;;;;;;5084977;28;20065;-80
2021/01/30 09:28:18;;;;;;;13.75;2.80;;;;;;;;;;5085641;28;20119;-80
2021/01/30 09:31:00;;;;;;;18.83;3.42;;;;;;;;;;5085312;28;20020;-80
2021/01/30 09:33:32;;;;;;;15.13;2.83;;;;;;;;;;5085521;28;20039;-80
2021/01/30 09:36:01;;;;;;;13.70;2.65;;;;;;;;;;5084990;28;20049;-82
2021/01/30 09:38:35;;;;;;;19.95;3.53;;;;;;;;;;5085764;28;20482;-80
2021/01/30 09:41:19;;;;;;;16.70;3.15;;;;;;;;;;5086945;28;20028;-78
2021/01/30 09:43:46;;;;;;;21.90;3.90;;;;;;;;;;5065160;28;20028;-80
2021/01/30 09:46:15;;;;;;;18.83;4.05;;;;;;;;;;5064179;28;20060;-79
2021/01/30 09:48:41;;;;;;;21.15;5.00;;;;;;;;;;5066502;28;20483;-80
2021/01/30 09:51:08;;;;;;;21.00;6.28;;;;;;;;;;5065222;28;20035;-82
2021/01/30 09:53:48;;;;;;;22.85;6.18;;;;;;;;;;5065059;28;20123;-79
2021/01/30 09:56:20;;;;;;;23.80;6.22;;;;;;;;;;5064707;28;20024;-80
2021/01/30 09:58:51;;;;;;;14.38;3.78;;;;;;;;;;5082264;28;20483;-80
2021/01/30 10:01:37;;;;;;;25.75;3.90;;;;;;;;;;5089625;28;20551;-81
2021/01/30 10:04:13;;;;;;;19.58;4.20;;;;;;;;;;5089378;28;20016;-78
2021/01/30 10:06:39;;;;;;;17.63;4.30;;;;;;;;;;5089222;28;20031;-81
2021/01/30 10:09:10;;;;;;;20.77;4.05;;;;;;;;;;5089988;28;20394;-80
2021/01/30 10:11:37;;;;;;;18.30;3.67;;;;;;;;;;5090675;28;20032;-81
2021/01/30 10:14:04;;;;;;;18.65;4.13;;;;;;;;;;5088896;28;20069;-80
2021/01/30 10:16:30;;;;;;;19.67;5.13;;;;;;;;;;5088260;28;20115;-81
2021/01/30 10:18:58;;;;;;;21.02;4.32;;;;;;;;;;5089282;28;20107;-80
2021/01/30 10:21:29;;;;;;;21.27;7.47;;;;;;;;;;5088851;28;20499;-84
2021/01/30 10:23:55;;;;;;;22.65;6.72;;;;;;;;;;5089978;28;20048;-80
2021/01/30 10:26:23;;;;;;;13.37;3.67;;;;;;;;;;5088202;28;20024;-79
2021/01/30 10:28:57;;;;;;;17.65;4.10;;;;;;;;;;5088705;28;20744;-79
2021/01/30 10:31:32;;;;;;;17.58;3.92;;;;;;;;;;5069648;28;20021;-79
2021/01/30 10:34:01;;;;;;;18.83;4.95;;;;;;;;;;5074498;28;20423;-81
2021/01/30 10:36:28;;;;;;;18.58;5.07;;;;;;;;;;5088208;28;20031;-82
2021/01/30 10:38:54;;;;;;;17.17;6.30;;;;;;;;;;5088960;28;20059;-81
2021/01/30 10:41:22;;;;;;;18.65;4.90;;;;;;;;;;5088736;28;20021;-81
2021/01/30 10:43:55;;;;;;;18.90;4.97;;;;;;;;;;5088637;28;20020;-79
2021/01/30 10:46:33;;;;;;;17.13;3.00;;;;;;;;;;5087426;28;20023;-82
2021/01/30 10:49:04;;;;;;;13.20;2.80;;;;;;;;;;5088256;28;20043;-83
2021/01/30 10:51:32;;;;;;;6.15;1.40;;;;;;;;;;5089774;28;20482;-81
2021/01/30 10:54:27;;;;;;;6.50;1.60;;;;;;;;;;5089108;28;20058;-81
2021/01/30 10:57:20;;;;;;;22.45;8.82;;;;;;;;;;5079699;28;20032;-80
2021/01/30 10:59:46;;;;;;;14.50;4.05;;;;;;;;;;5084978;28;20554;-81
2021/01/30 11:02:24;;;;;;;13.32;5.60;;;;;;;;;;5089659;28;20035;-81
2021/01/30 11:05:00;;;;;;;6.30;2.20;;;;;;;;;;5088037;28;20054;-81
2021/01/30 11:07:26;;;;;;;12.18;2.65;;;;;;;;;;5089682;28;20039;-81
2021/01/30 11:09:55;;;;;;;7.60;1.88;;;;;;;;;;5088044;28;20032;-81
2021/01/30 11:12:25;;;;;;;3.95;1.08;;;;;;;;;;5088180;28;20142;-81
2021/01/30 11:14:51;;;;;;;7.45;1.63;;;;;;;;;;5089109;28;20016;-82
2021/01/30 11:17:30;;;;;;;4.78;1.23;;;;;;;;;;5088139;28;20102;-80
2021/01/30 11:19:57;;;;;;;7.35;1.55;;;;;;;;;;5088354;28;20597;-83
2021/01/30 11:22:27;;;;;;;6.35;1.17;;;;;;;;;;5088422;28;20031;-80
2021/01/30 11:24:54;;;;;;;7.35;1.23;;;;;;;;;;5087912;28;20423;-79
2021/01/30 11:27:32;;;;;;;6.47;1.40;;;;;;;;;;5089511;28;20645;-82
2021/01/30 11:29:58;;;;;;;6.53;1.23;;;;;;;;;;5088435;28;20038;-83
2021/01/30 11:32:25;;;;;;;5.30;1.10;;;;;;;;;;5088593;28;20069;-82
2021/01/30 11:34:56;;;;;;;7.88;1.33;;;;;;;;;;5088854;28;20020;-82
2021/01/30 11:37:23;;;;;;;8.00;1.60;;;;;;;;;;5088418;28;20024;-81
2021/01/30 11:39:49;;;;;;;6.65;1.63;;;;;;;;;;5090556;28;20042;-78
2021/01/30 11:42:15;;;;;;;6.28;2.10;;;;;;;;;;5080777;28;20035;-77
2021/01/30 11:44:41;;;;;;;9.05;1.40;;;;;;;;;;5085329;28;20497;-80
2021/01/30 11:47:07;;;;;;;3.60;1.23;;;;;;;;;;5088392;28;20020;-79
2021/01/30 11:49:33;;;;;;;7.05;1.45;;;;;;;;;;5087986;28;20035;-79
2021/01/30 11:51:59;;;;;;;9.20;1.33;;;;;;;;;;5067343;28;20028;-79
2021/01/30 11:54:25;;;;;;;10.00;1.85;;;;;;;;;;5077646;28;20031;-79
2021/01/30 11:56:51;;;;;;;3.95;1.10;;;;;;;;;;5088490;28;20017;-79
2021/01/30 11:59:17;;;;;;;4.90;1.80;;;;;;;;;;5088383;28;20378;-81
2021/01/30 12:01:43;;;;;;;6.60;1.95;;;;;;;;;;5087981;28;20085;-82
2021/01/30 12:04:11;;;;;;;11.13;2.03;;;;;;;;;;5088578;28;20430;-80
2021/01/30 12:06:37;;;;;;;15.57;4.45;;;;;;;;;;5087725;28;20035;-81
2021/01/30 12:09:04;;;;;;;17.40;5.93;;;;;;;;;;5087785;28;20020;-81
2021/01/30 12:11:30;;;;;;;14.25;3.65;;;;;;;;;;5088988;28;20036;-81
2021/01/30 12:13:56;;;;;;;14.80;3.65;;;;;;;;;;5089397;28;20473;-80
2021/01/30 12:16:23;;;;;;;12.82;3.58;;;;;;;;;;5087470;28;20039;-82
2021/01/30 12:18:49;;;;;;;13.93;3.13;;;;;;;;;;5087718;28;20020;-81
2021/01/30 12:21:17;;;;;;;12.70;3.03;;;;;;;;;;5087442;28;20028;-81
2021/01/30 12:23:43;;;;;;;12.43;3.40;;;;;;;;;;5088148;28;20020;-81
2021/01/30 12:26:10;;;;;;;15.32;3.83;;;;;;;;;;5087548;28;20869;-81
2021/01/30 12:28:36;;;;;;;11.88;3.00;;;;;;;;;;5089268;28;20028;-82
2021/01/30 12:31:03;;;;;;;10.80;2.50;;;;;;;;;;5088870;28;20020;-82
2021/01/30 12:33:29;;;;;;;15.43;4.30;;;;;;;;;;5088766;28;20024;-79
2021/01/30 12:35:55;;;;;;;13.00;3.85;;;;;;;;;;5088580;28;20024;-82
2021/01/30 12:38:22;;;;;;;10.80;3.20;;;;;;;;;;5090567;28;20063;-82
2021/01/30 12:40:48;;;;;;;10.98;3.10;;;;;;;;;;5088108;28;20017;-80
2021/01/30 12:43:19;;;;;;;15.88;3.95;;;;;;;;;;5087228;28;20028;-81
2021/01/30 12:45:46;;;;;;;6.50;2.13;;;;;;;;;;5088264;28;20410;-83
2021/01/30 12:48:12;;;;;;;10.23;2.80;;;;;;;;;;5087798;28;20475;-81
2021/01/30 12:50:38;;;;;;;11.52;3.00;;;;;;;;;;5087381;28;20537;-81
2021/01/30 12:53:07;;;;;;;12.30;2.92;;;;;;;;;;5087419;28;20055;-81
2021/01/30 12:55:33;;;;;;;8.27;3.38;;;;;;;;;;5086718;28;20800;-78
2021/01/30 12:57:59;;;;;;;11.88;3.03;;;;;;;;;;5086849;28;20020;-82
2021/01/30 13:00:27;;;;;;;10.93;3.25;;;;;;;;;;5087774;28;20442;-81
2021/01/30 13:02:53;;;;;;;13.15;3.05;;;;;;;;;;5087732;28;20119;-82
2021/01/30 13:05:20;;;;;;;7.53;2.83;;;;;;;;;;5084956;28;20058;-81
2021/01/30 13:07:46;;;;;;;8.73;2.88;;;;;;;;;;5087133;28;20059;-80
2021/01/30 13:10:15;;;;;;;9.60;2.70;;;;;;;;;;5090473;28;20032;-81
2021/01/30 13:12:41;;;;;;;9.45;2.60;;;;;;;;;;5087708;28;20124;-79
2021/01/30 13:15:08;;;;;;;11.45;2.65;;;;;;;;;;5085645;28;20024;-81
2021/01/30 13:17:34;;;;;;;10.70;2.63;;;;;;;;;;5085797;28;20038;-81
2021/01/30 13:20:00;;;;;;;12.55;2.90;;;;;;;;;;5086130;28;20103;-82
2021/01/30 13:22:26;;;;;;;11.80;2.55;;;;;;;;;;5089134;28;20085;-82
2021/01/30 13:24:52;;;;;;;13.63;3.00;;;;;;;;;;5085700;28;20553;-81
2021/01/30 13:27:22;;;;;;;11.18;3.35;;;;;;;;;;5085438;28;20035;-81
2021/01/30 13:29:48;;;;;;;7.97;2.80;;;;;;;;;;5085647;28;20034;-81
2021/01/30 13:32:16;;;;;;;10.68;3.03;;;;;;;;;;5085127;28;20028;-77
2021/01/30 13:34:42;;;;;;;13.48;3.53;;;;;;;;;;5087989;28;20020;-81
2021/01/30 13:37:08;;;;;;;13.40;3.38;;;;;;;;;;5089313;28;20020;-81
2021/01/30 13:39:34;;;;;;;11.38;4.10;;;;;;;;;;5089537;28;20027;-79
2021/01/30 13:42:00;;;;;;;9.93;2.72;;;;;;;;;;5089705;28;20031;-82
2021/01/30 13:44:26;;;;;;;10.20;3.50;;;;;;;;;;5090503;28;20039;-80
2021/01/30 13:46:52;;;;;;;6.50;2.72;;;;;;;;;;5090575;28;20620;-81
2021/01/30 13:49:18;;;;;;;10.45;2.20;;;;;;;;;;5089605;28;20173;-78
2021/01/30 13:51:44;;;;;;;5.95;1.77;;;;;;;;;;5089191;28;20028;-82
2021/01/30 13:54:14;;;;;;;8.57;2.40;;;;;;;;;;5089186;28;20028;-81
2021/01/30 13:56:40;;;;;;;9.63;2.58;;;;;;;;;;5082457;28;20020;-80
2021/01/30 13:59:07;;;;;;;10.00;2.70;;;;;;;;;;5068854;28;20024;-81
2021/01/30 14:01:33;;;;;;;6.45;2.17;;;;;;;;;;5069127;28;20021;-79
2021/01/30 14:03:59;;;;;;;12.98;2.60;;;;;;;;;;5072086;28;20029;-80
2021/01/30 14:06:25;;;;;;;9.02;2.10;;;;;;;;;;5067186;28;20336;-80
2021/01/30 14:08:51;;;;;;;7.45;2.22;;;;;;;;;;5088491;28;20031;-80
2021/01/30 14:11:17;;;;;;;11.60;2.35;;;;;;;;;;5088756;28;20085;-81
2021/01/30 14:13:43;;;;;;;11.48;4.60;;;;;;;;;;5090246;28;20028;-82
2021/01/30 14:16:13;;;;;;;9.43;3.70;;;;;;;;;;5088620;28;20107;-88
2021/01/30 14:18:41;;;;;;;6.88;2.28;;;;;;;;;;5098860;28;20024;-81
2021/01/30 14:21:09;;;;;;;9.05;2.30;;;;;;;;;;5095647;28;20494;-91
2021/01/30 14:23:39;;;;;;;9.48;2.58;;;;;;;;;;5099022;28;20044;-91
2021/01/30 14:26:05;;;;;;;8.82;2.20;;;;;;;;;;5104171;28;20114;-91
2021/01/30 14:28:33;;;;;;;8.77;1.75;;;;;;;;;;5099119;28;20024;-85
2021/01/30 14:30:59;;;;;;;6.70;2.40;;;;;;;;;;5096963;28;20031;-89
2021/01/30 14:33:25;;;;;;;7.05;3.83;;;;;;;;;;5095140;28;20032;-88
2021/01/30 14:35:53;;;;;;;5.22;1.92;;;;;;;;;;5092474;28;20024;-81
2021/01/30 14:38:19;;;;;;;5.88;2.50;;;;;;;;;;5092283;28;20016;-79
2021/01/30 14:40:46;;;;;;;10.13;2.22;;;;;;;;;;5094339;28;20081;-82
2021/01/30 14:43:13;;;;;;;8.38;2.33;;;;;;;;;;5089522;28;20081;-82
2021/01/30 14:45:40;;;;;;;7.32;2.25;;;;;;;;;;5087873;28;20550;-81
2021/01/30 14:48:06;;;;;;;5.70;2.25;;;;;;;;;;5092970;28;20020;-81
2021/01/30 14:50:32;;;;;;;6.43;2.08;;;;;;;;;;5089229;28;20398;-81
2021/01/30 14:52:58;;;;;;;7.95;2.38;;;;;;;;;;5088528;28;20020;-80